De Kooy, Netherlands
Current Conditions -  °F | °C
As of 5:25 AM on Wednesday 22 Oct 2014 (Local Time) from EHKD Reporting Station
Light Rain Light Rain  
Wind Chill: 40°   Ceiling: 3200
Heat Index: 48°   Visibility: 6mi
Dew Point: 43°   Wind: 29mph
Humidity: 82%   Direction: 320°NW
Pressure: 29.88"   Gusts: 49mph
Location:  52.92°N, 4.78°E
Report Text: EHKD 220325Z AUTO 32025G43KT 9999 -RA FEW023 SCT028 BKN032 09/06 Q1012 BLU
Loading
Personal Weather Stations






























Interactive Weather Map
Tropical Storm Tracking
New forecast layout! Learn more

10-Day Weather Forecast

Advertisements
Track Severe Weather on mobile